Time;durP1;ratioP1;P1;durP2;ratioP2;P2;SDS_P1;SDS_P2;PMS_P1;PMS_P2;Temp;Humidity;BMP_temperature;BMP_pressure;BME280_temperature;BME280_humidity;BME280_pressure;Samples;Min_cycle;Max_cycle;Signal;HPM_P1;HPM_P2
2022/10/20 00:01:02;;;;;;;6.65;2.85;;;8.10;99.90;;;;;;4932926;29;20043;-86
2022/10/20 00:03:28;;;;;;;8.90;3.38;;;8.10;99.90;;;;;;4919535;29;20051;-85
2022/10/20 00:06:17;;;;;;;5.70;3.10;;;8.10;99.90;;;;;;4920934;29;20039;-85
2022/10/20 00:08:46;;;;;;;7.45;3.45;;;8.10;99.90;;;;;;4936737;29;20052;-85
2022/10/20 00:11:15;;;;;;;5.18;3.08;;;8.10;99.90;;;;;;4918611;29;20090;-85
2022/10/20 00:13:43;;;;;;;8.20;2.85;;;8.00;99.90;;;;;;4937541;29;20096;-86
2022/10/20 00:16:09;;;;;;;11.23;3.00;;;8.00;99.90;;;;;;4931548;29;20091;-85
2022/10/20 00:18:34;;;;;;;6.63;2.90;;;8.50;99.90;;;;;;4921101;29;20043;-85
2022/10/20 00:21:08;;;;;;;9.23;2.75;;;8.10;99.90;;;;;;4917276;29;20047;-85
2022/10/20 00:23:35;;;;;;;5.90;3.08;;;8.10;99.90;;;;;;4934295;29;20048;-86
2022/10/20 00:26:07;;;;;;;8.73;3.13;;;7.90;99.90;;;;;;4939015;29;20044;-86
2022/10/20 00:28:33;;;;;;;6.97;2.97;;;8.30;99.90;;;;;;4931223;29;20071;-85
2022/10/20 00:30:59;;;;;;;6.10;3.00;;;7.90;99.90;;;;;;4937649;29;20047;-85
2022/10/20 00:33:25;;;;;;;6.45;2.97;;;8.20;99.90;;;;;;4933823;29;20039;-86
2022/10/20 00:35:51;;;;;;;7.60;3.35;;;7.80;99.90;;;;;;4936874;29;20054;-85
2022/10/20 00:38:17;;;;;;;8.18;3.90;;;7.80;99.90;;;;;;4914592;29;20052;-85
2022/10/20 00:40:43;;;;;;;5.22;3.13;;;7.80;99.90;;;;;;4936489;29;20067;-86
2022/10/20 00:43:12;;;;;;;10.07;3.15;;;7.70;99.90;;;;;;4936296;29;20039;-86
2022/10/20 00:45:39;;;;;;;6.43;2.85;;;7.70;99.90;;;;;;4950353;28;20107;-85
2022/10/20 00:48:19;;;;;;;4.50;2.78;;;7.70;99.90;;;;;;4930316;29;20032;-85
2022/10/20 00:50:51;;;;;;;6.85;2.78;;;7.70;99.90;;;;;;4937049;29;20039;-86
2022/10/20 00:53:17;;;;;;;7.53;3.58;;;7.70;99.90;;;;;;4931016;29;20436;-86
2022/10/20 00:55:47;;;;;;;7.53;2.80;;;7.60;99.90;;;;;;4952263;28;20044;-86
2022/10/20 00:58:13;;;;;;;9.57;3.20;;;7.60;99.90;;;;;;4934549;29;20492;-85
2022/10/20 01:00:44;;;;;;;7.65;2.90;;;7.60;99.90;;;;;;4950117;28;20043;-86
2022/10/20 01:03:19;;;;;;;6.13;2.92;;;7.60;99.90;;;;;;4935956;29;20043;-87
2022/10/20 01:05:44;;;;;;;8.38;3.53;;;7.60;99.90;;;;;;4928282;29;20063;-86
2022/10/20 01:08:10;;;;;;;10.23;3.42;;;7.50;99.90;;;;;;4936462;29;20035;-85
2022/10/20 01:10:40;;;;;;;9.18;3.25;;;7.60;99.90;;;;;;4948993;28;20036;-85
2022/10/20 01:13:17;;;;;;;5.80;3.38;;;7.60;99.90;;;;;;4948698;28;20063;-85
2022/10/20 01:16:06;;;;;;;7.00;2.80;;;8.40;99.90;;;;;;4950860;28;20118;-86
2022/10/20 01:19:05;;;;;;;7.50;3.10;;;7.50;99.90;;;;;;4933662;29;20524;-86
2022/10/20 01:22:09;;;;;;;8.80;3.25;;;7.50;99.90;;;;;;4929673;29;20412;-85
2022/10/20 01:24:59;;;;;;;8.93;3.65;;;7.40;99.90;;;;;;4931268;29;20063;-86
2022/10/20 01:27:33;;;;;;;7.72;3.22;;;7.50;99.90;;;;;;4944962;29;20118;-86
2022/10/20 01:30:17;;;;;;;4.63;3.40;;;8.30;99.90;;;;;;4934102;29;20071;-85
2022/10/20 01:32:49;;;;;;;10.40;3.38;;;7.40;99.90;;;;;;4955318;28;20075;-85
2022/10/20 01:35:24;;;;;;;5.40;3.03;;;7.40;99.90;;;;;;4917507;29;20107;-85
2022/10/20 01:38:19;;;;;;;7.88;3.13;;;7.40;99.90;;;;;;4952515;28;20043;-86
2022/10/20 01:40:53;;;;;;;6.68;2.92;;;7.30;99.90;;;;;;4914880;29;20056;-85
2022/10/20 01:43:22;;;;;;;8.75;3.20;;;7.90;99.90;;;;;;4916768;29;20094;-86
2022/10/20 01:45:52;;;;;;;7.30;3.25;;;7.80;99.90;;;;;;4927661;29;20048;-86
2022/10/20 01:48:25;;;;;;;7.13;4.18;;;7.30;99.90;;;;;;4932632;29;20039;-85
2022/10/20 01:50:53;;;;;;;11.02;3.50;;;7.30;99.90;;;;;;4933258;29;20062;-86
2022/10/20 01:53:19;;;;;;;5.50;3.08;;;7.30;99.90;;;;;;4932215;29;20043;-86
2022/10/20 01:55:48;;;;;;;5.82;3.33;;;7.50;99.90;;;;;;4935851;29;20054;-86
2022/10/20 01:58:40;;;;;;;4.95;3.35;;;7.20;99.90;;;;;;4934556;28;20046;-85
2022/10/20 02:01:31;;;;;;;8.00;4.50;;;7.20;99.90;;;;;;4936420;29;20044;-85
2022/10/20 02:04:00;;;;;;;7.85;3.50;;;7.20;99.90;;;;;;4953104;28;20055;-86
2022/10/20 02:06:44;;;;;;;8.98;3.60;;;7.20;99.90;;;;;;4915546;29;20050;-86
2022/10/20 02:09:35;;;;;;;5.72;3.67;;;7.20;99.90;;;;;;4946778;28;20098;-86
2022/10/20 02:12:02;;;;;;;7.97;3.75;;;7.10;99.90;;;;;;4935311;29;20089;-86
2022/10/20 02:14:31;;;;;;;5.85;3.78;;;7.60;99.90;;;;;;4930699;29;20035;-86
2022/10/20 02:17:03;;;;;;;7.63;3.70;;;7.10;99.90;;;;;;4935549;29;20036;-86
2022/10/20 02:19:34;;;;;;;5.72;3.70;;;7.00;99.90;;;;;;4918661;29;20044;-86
2022/10/20 02:22:01;;;;;;;5.00;3.30;;;8.10;99.90;;;;;;4944299;28;20039;-86
2022/10/20 02:24:33;;;;;;;9.95;3.70;;;7.00;99.90;;;;;;4922392;29;20546;-86
2022/10/20 02:27:03;;;;;;;9.82;3.58;;;7.00;99.90;;;;;;4930919;29;20031;-85
2022/10/20 02:29:34;;;;;;;9.30;3.92;;;7.00;99.90;;;;;;4933550;29;20118;-85
2022/10/20 02:32:00;;;;;;;7.15;4.05;;;7.00;99.90;;;;;;4933221;29;20071;-86
2022/10/20 02:34:26;;;;;;;7.22;4.03;;;7.00;99.90;;;;;;4927597;29;20036;-85
2022/10/20 02:36:57;;;;;;;6.47;3.70;;;7.00;99.90;;;;;;4911949;29;20083;-85
2022/10/20 02:39:25;;;;;;;7.55;4.05;;;7.00;99.90;;;;;;4917114;29;20047;-86
2022/10/20 02:41:50;;;;;;;11.32;4.15;;;7.00;99.90;;;;;;4920475;29;20039;-85
2022/10/20 02:44:17;;;;;;;6.45;3.75;;;7.00;99.90;;;;;;4950091;28;20051;-85
2022/10/20 02:46:42;;;;;;;8.52;3.88;;;7.00;99.90;;;;;;4928393;29;20072;-86
2022/10/20 02:49:11;;;;;;;7.70;4.03;;;7.00;99.90;;;;;;4942655;29;20074;-85
2022/10/20 02:51:43;;;;;;;8.75;4.50;;;7.00;99.90;;;;;;4949156;28;20059;-85
2022/10/20 02:54:08;;;;;;;6.72;4.32;;;7.00;99.90;;;;;;4930827;29;20047;-86
2022/10/20 02:56:34;;;;;;;5.38;3.80;;;6.90;99.90;;;;;;4939840;29;20048;-85
2022/10/20 02:58:59;;;;;;;6.35;4.18;;;7.00;99.90;;;;;;4947016;28;20079;-86
2022/10/20 03:01:25;;;;;;;7.03;3.95;;;6.90;99.90;;;;;;4916111;29;20043;-85
2022/10/20 03:03:50;;;;;;;8.07;4.25;;;7.40;99.90;;;;;;4946299;28;20048;-86
2022/10/20 03:06:16;;;;;;;7.72;3.97;;;7.50;99.90;;;;;;4950052;28;20028;-85
2022/10/20 03:08:42;;;;;;;9.13;4.80;;;6.90;99.90;;;;;;4913049;29;20036;-86
2022/10/20 03:11:08;;;;;;;8.57;4.97;;;6.90;99.90;;;;;;4928226;29;20044;-86
2022/10/20 03:13:34;;;;;;;7.55;4.65;;;6.90;99.90;;;;;;4944800;28;20050;-86
2022/10/20 03:16:02;;;;;;;5.97;4.32;;;6.80;99.90;;;;;;4946106;29;20047;-85
2022/10/20 03:18:28;;;;;;;8.38;4.80;;;6.90;99.90;;;;;;4952028;28;20491;-85
2022/10/20 03:20:54;;;;;;;7.85;4.45;;;6.80;99.90;;;;;;4949528;28;20062;-85
2022/10/20 03:23:20;;;;;;;10.48;5.53;;;6.80;99.90;;;;;;4931288;29;20043;-86
2022/10/20 03:25:45;;;;;;;9.65;4.75;;;6.80;99.90;;;;;;4934602;29;20036;-85
2022/10/20 03:28:11;;;;;;;8.45;4.82;;;6.80;99.90;;;;;;4950131;28;20411;-85
2022/10/20 03:30:36;;;;;;;11.43;5.28;;;6.80;99.90;;;;;;4929381;29;20035;-86
2022/10/20 03:33:02;;;;;;;7.97;5.53;;;6.80;99.90;;;;;;4945234;29;20063;-85
2022/10/20 03:35:28;;;;;;;7.03;4.78;;;6.80;99.90;;;;;;4932515;29;20032;-86
2022/10/20 03:37:53;;;;;;;7.18;5.35;;;6.80;99.90;;;;;;4935298;29;20044;-86
2022/10/20 03:40:19;;;;;;;6.38;5.10;;;7.50;99.90;;;;;;4933501;29;20032;-86
2022/10/20 03:42:45;;;;;;;10.00;5.15;;;6.80;99.90;;;;;;4951065;28;20520;-85
2022/10/20 03:45:10;;;;;;;8.63;5.45;;;6.80;99.90;;;;;;4925957;29;20047;-85
2022/10/20 03:47:36;;;;;;;8.40;5.28;;;6.80;99.90;;;;;;4943659;28;20381;-86
2022/10/20 03:50:03;;;;;;;6.47;5.70;;;6.80;99.90;;;;;;4904279;29;20039;-86
2022/10/20 03:52:31;;;;;;;9.93;5.43;;;6.80;99.90;;;;;;4922295;29;20142;-86
2022/10/20 03:54:57;;;;;;;8.80;6.18;;;6.80;99.90;;;;;;4934699;29;20047;-86
2022/10/20 03:57:22;;;;;;;7.30;5.85;;;7.40;99.90;;;;;;4929181;29;20047;-85
2022/10/20 03:59:48;;;;;;;9.77;5.72;;;6.90;99.90;;;;;;4924537;29;20039;-85
2022/10/20 04:02:36;;;;;;;8.85;6.78;;;6.90;99.90;;;;;;4916407;29;20063;-85
2022/10/20 04:05:04;;;;;;;8.90;6.50;;;6.90;99.90;;;;;;4911252;29;20051;-86
2022/10/20 04:07:30;;;;;;;7.05;6.32;;;6.90;99.90;;;;;;4922008;29;20036;-85
2022/10/20 04:09:57;;;;;;;7.18;5.97;;;6.90;99.90;;;;;;4946408;28;20102;-85
2022/10/20 04:12:23;;;;;;;8.30;5.72;;;6.90;99.90;;;;;;4926526;29;20288;-86
2022/10/20 04:14:50;;;;;;;16.05;6.40;;;6.80;99.90;;;;;;4931341;29;20059;-86
2022/10/20 04:17:18;;;;;;;13.15;6.63;;;6.90;99.90;;;;;;4917110;29;20039;-85
2022/10/20 04:19:47;;;;;;;9.13;6.93;;;7.30;99.90;;;;;;4933799;29;20091;-86
2022/10/20 04:22:13;;;;;;;7.57;6.78;;;6.80;99.90;;;;;;4934878;29;20156;-86
2022/10/20 04:24:38;;;;;;;9.40;6.70;;;6.90;99.90;;;;;;4938495;29;20064;-86
2022/10/20 04:27:04;;;;;;;12.82;7.78;;;6.90;99.90;;;;;;4952071;28;20044;-86
2022/10/20 04:29:30;;;;;;;9.57;7.25;;;6.80;99.90;;;;;;4934031;29;20032;-85
2022/10/20 04:31:57;;;;;;;11.23;7.07;;;6.80;99.90;;;;;;4927926;29;20513;-85
2022/10/20 04:34:22;;;;;;;11.25;7.32;;;6.90;99.90;;;;;;4951863;28;20067;-85
2022/10/20 04:36:51;;;;;;;9.77;7.35;;;6.90;99.90;;;;;;4934922;29;20467;-85
2022/10/20 04:39:17;;;;;;;12.77;8.02;;;6.90;99.90;;;;;;4938527;29;20047;-86
2022/10/20 04:41:43;;;;;;;10.23;7.22;;;6.80;99.90;;;;;;4949856;28;20119;-85
2022/10/20 04:44:08;;;;;;;9.00;7.43;;;6.90;99.90;;;;;;4935651;29;20036;-85
2022/10/20 04:46:34;;;;;;;10.98;7.70;;;6.80;99.90;;;;;;4917162;29;20519;-85
2022/10/20 04:49:00;;;;;;;8.45;7.53;;;6.80;99.90;;;;;;4935669;29;20087;-85
2022/10/20 04:51:25;;;;;;;12.40;7.60;;;7.80;99.90;;;;;;4949754;28;20046;-85
2022/10/20 04:53:51;;;;;;;13.27;8.35;;;6.80;99.90;;;;;;4933817;29;20075;-85
2022/10/20 04:56:18;;;;;;;12.43;8.55;;;6.80;99.90;;;;;;4940220;29;20031;-86
2022/10/20 04:58:53;;;;;;;10.73;8.27;;;7.20;99.90;;;;;;4946707;28;20044;-86
2022/10/20 05:01:19;;;;;;;10.65;8.50;;;6.80;99.90;;;;;;4932697;29;20036;-85
2022/10/20 05:03:45;;;;;;;12.73;8.18;;;6.80;99.90;;;;;;4941202;28;20055;-85
2022/10/20 05:06:26;;;;;;;9.93;8.57;;;6.80;99.90;;;;;;4920173;29;20035;-85
2022/10/20 05:08:55;;;;;;;14.77;9.10;;;6.90;99.90;;;;;;4947834;28;20048;-85
2022/10/20 05:11:22;;;;;;;9.90;8.90;;;6.90;99.90;;;;;;4926496;29;20040;-86
2022/10/20 05:13:48;;;;;;;9.80;8.00;;;6.80;99.90;;;;;;4913069;29;20391;-84
2022/10/20 05:16:16;;;;;;;12.63;8.50;;;6.80;99.90;;;;;;4933966;29;20038;-85
2022/10/20 05:18:42;;;;;;;10.02;9.00;;;6.80;99.90;;;;;;4930463;29;20405;-85
2022/10/20 05:21:11;;;;;;;12.13;9.52;;;6.80;99.90;;;;;;4919889;29;20040;-85
2022/10/20 05:23:38;;;;;;;9.57;8.65;;;6.80;99.90;;;;;;4932032;29;20697;-85
2022/10/20 05:26:12;;;;;;;14.68;9.40;;;6.80;99.90;;;;;;4931287;29;20052;-85
2022/10/20 05:28:38;;;;;;;12.65;9.13;;;6.80;99.90;;;;;;4914140;29;20040;-85
2022/10/20 05:31:05;;;;;;;12.98;9.57;;;6.80;99.90;;;;;;4929035;29;20047;-85
2022/10/20 05:33:35;;;;;;;12.13;9.63;;;6.70;99.90;;;;;;4935786;28;20039;-85
2022/10/20 05:36:09;;;;;;;12.65;9.38;;;6.80;99.90;;;;;;4948814;28;20079;-86
2022/10/20 05:38:35;;;;;;;11.65;9.52;;;6.70;99.90;;;;;;4916988;29;20131;-85
2022/10/20 05:41:09;;;;;;;11.35;9.57;;;6.70;99.90;;;;;;4936890;29;20094;-85
2022/10/20 05:43:35;;;;;;;11.65;10.25;;;6.70;99.90;;;;;;4934737;29;20064;-86
2022/10/20 05:46:01;;;;;;;11.75;9.98;;;6.80;99.90;;;;;;4946611;29;20047;-86
2022/10/20 05:48:27;;;;;;;14.63;10.35;;;6.70;99.90;;;;;;4936652;29;20436;-85
2022/10/20 05:50:52;;;;;;;11.38;9.23;;;6.70;99.90;;;;;;4916056;29;20106;-86
2022/10/20 05:53:18;;;;;;;11.73;10.57;;;6.70;99.90;;;;;;4915521;29;20040;-85
2022/10/20 05:55:44;;;;;;;11.82;10.63;;;6.70;99.90;;;;;;4934993;29;20495;-86
2022/10/20 05:58:09;;;;;;;14.75;10.85;;;6.70;99.90;;;;;;4932612;29;20074;-85
2022/10/20 06:00:40;;;;;;;10.63;9.57;;;6.80;99.90;;;;;;4930779;29;20058;-86
2022/10/20 06:03:07;;;;;;;11.45;10.23;;;6.70;99.90;;;;;;4945468;28;20044;-85
2022/10/20 06:05:33;;;;;;;12.32;10.80;;;6.70;99.90;;;;;;4945530;29;20047;-85
2022/10/20 06:07:58;;;;;;;11.77;10.05;;;6.70;99.90;;;;;;4933625;29;20046;-85
2022/10/20 06:10:24;;;;;;;17.73;11.02;;;6.80;99.90;;;;;;4943950;28;20047;-85
2022/10/20 06:12:50;;;;;;;14.52;10.38;;;6.80;99.90;;;;;;4946197;28;20054;-85
2022/10/20 06:15:15;;;;;;;12.05;9.43;;;6.70;99.90;;;;;;4928316;29;20115;-85
2022/10/20 06:17:41;;;;;;;11.50;10.43;;;6.80;99.90;;;;;;4944120;28;20099;-85
2022/10/20 06:20:07;;;;;;;12.98;11.00;;;6.80;99.90;;;;;;4936450;29;20071;-85
2022/10/20 06:22:32;;;;;;;15.52;10.85;;;6.80;99.90;;;;;;4929654;29;20723;-85
2022/10/20 06:24:58;;;;;;;14.63;11.38;;;6.80;99.90;;;;;;4915109;29;20058;-86
2022/10/20 06:27:23;;;;;;;12.90;9.93;;;6.90;99.90;;;;;;4918306;29;20079;-86
2022/10/20 06:29:50;;;;;;;13.13;10.45;;;6.80;99.90;;;;;;4948885;28;20040;-85
2022/10/20 06:32:33;;;;;;;12.95;10.90;;;6.90;99.90;;;;;;4938034;29;20066;-85
2022/10/20 06:35:03;;;;;;;11.55;10.43;;;7.20;99.90;;;;;;4936780;29;20039;-86
2022/10/20 06:37:29;;;;;;;11.98;10.77;;;6.90;99.90;;;;;;4946326;28;20568;-86
2022/10/20 06:40:36;;;;;;;14.25;10.93;;;7.80;99.90;;;;;;4949800;28;20168;-86
2022/10/20 06:47:15;;;;;;;12.57;10.57;;;7.10;99.90;;;;;;4885792;29;20086;-85
2022/10/20 06:49:52;;;;;;;12.45;10.55;;;7.00;99.90;;;;;;4920274;29;20043;-85
2022/10/20 06:53:01;;;;;;;12.00;10.90;;;7.10;99.90;;;;;;4903791;29;20067;-87
2022/10/20 06:56:14;;;;;;;12.90;11.20;;;7.10;99.90;;;;;;4896579;29;20445;-86
2022/10/20 07:02:28;;;;;;;10.98;10.00;;;7.20;99.90;;;;;;4915123;29;20063;-86
2022/10/20 07:04:54;;;;;;;17.52;10.80;;;7.30;99.90;;;;;;4910182;29;20144;-86
2022/10/20 07:07:34;;;;;;;11.85;10.15;;;7.30;99.90;;;;;;4902977;29;20122;-86
2022/10/20 07:10:35;;;;;;;15.80;11.10;;;7.30;99.90;;;;;;4873862;29;20056;-86
2022/10/20 07:13:07;;;;;;;10.85;9.85;;;7.30;99.90;;;;;;4873266;29;20104;-85
2022/10/20 07:15:51;;;;;;;13.27;10.82;;;7.40;99.90;;;;;;4931240;29;20039;-86
2022/10/20 07:18:16;;;;;;;11.25;10.30;;;7.30;99.90;;;;;;4916237;29;20380;-86
2022/10/20 07:20:48;;;;;;;12.23;10.88;;;7.50;99.90;;;;;;4934790;29;20098;-86
2022/10/20 07:27:04;;;;;;;14.40;10.68;;;7.40;99.90;;;;;;4941136;29;20065;-87
2022/10/20 07:29:46;;;;;;;12.15;10.63;;;7.50;99.90;;;;;;4945156;28;20442;-85
2022/10/20 07:32:26;;;;;;;16.27;10.30;;;7.80;99.90;;;;;;4898385;29;20044;-86
2022/10/20 07:34:54;;;;;;;12.95;11.35;;;7.60;99.90;;;;;;4932940;29;20048;-86
2022/10/20 07:37:20;;;;;;;14.82;10.57;;;7.60;99.90;;;;;;4926037;29;20126;-85
2022/10/20 07:39:47;;;;;;;16.00;9.38;;;7.60;99.90;;;;;;4943854;28;20147;-85
2022/10/20 07:42:38;;;;;;;13.98;10.52;;;7.60;99.90;;;;;;4928141;29;20123;-86
2022/10/20 07:45:51;;;;;;;12.10;9.57;;;7.60;99.90;;;;;;4925365;29;20591;-85
2022/10/20 07:48:19;;;;;;;11.13;10.13;;;7.90;99.90;;;;;;4914007;29;20099;-85
2022/10/20 07:50:55;;;;;;;14.25;10.50;;;7.70;99.90;;;;;;4926299;29;20152;-85
2022/10/20 07:53:21;;;;;;;10.77;9.43;;;7.80;99.90;;;;;;4911990;29;20093;-86
2022/10/20 07:55:47;;;;;;;11.52;9.45;;;7.80;99.90;;;;;;4951819;28;20040;-85
2022/10/20 07:58:29;;;;;;;14.65;9.18;;;7.90;99.90;;;;;;4926566;29;20050;-85
2022/10/20 08:00:55;;;;;;;10.23;9.32;;;7.90;99.90;;;;;;4921668;29;20052;-85
2022/10/20 08:03:20;;;;;;;17.13;9.85;;;8.00;99.90;;;;;;4918530;29;20036;-85
2022/10/20 08:05:50;;;;;;;12.35;8.98;;;8.10;99.90;;;;;;4924881;29;20388;-85
2022/10/20 08:08:16;;;;;;;9.68;8.55;;;8.20;99.90;;;;;;4946340;28;20036;-85
2022/10/20 08:10:45;;;;;;;16.70;10.70;;;8.30;99.90;;;;;;4903652;29;20119;-85
2022/10/20 08:13:11;;;;;;;10.30;8.93;;;8.30;99.90;;;;;;4908823;29;20055;-85
2022/10/20 08:15:36;;;;;;;9.50;8.32;;;8.40;99.90;;;;;;4937202;29;20130;-85
2022/10/20 08:18:03;;;;;;;9.27;8.40;;;8.50;99.90;;;;;;4952590;28;20307;-85
2022/10/20 08:20:28;;;;;;;9.48;8.68;;;8.50;99.90;;;;;;4942264;28;20047;-85
2022/10/20 08:22:54;;;;;;;12.93;8.75;;;8.60;99.90;;;;;;4934374;29;20500;-85
2022/10/20 08:25:20;;;;;;;8.32;7.53;;;8.60;99.90;;;;;;4944085;28;20584;-85
2022/10/20 08:27:46;;;;;;;8.63;7.47;;;8.80;99.90;;;;;;4911390;29;20040;-85
2022/10/20 08:30:14;;;;;;;8.40;7.25;;;8.70;99.90;;;;;;4919396;29;20564;-85
2022/10/20 08:32:41;;;;;;;9.50;7.95;;;8.80;99.90;;;;;;4931925;29;20118;-84
2022/10/20 08:35:07;;;;;;;10.68;7.88;;;8.80;99.90;;;;;;4936612;29;20035;-85
2022/10/20 08:37:35;;;;;;;9.70;7.85;;;8.90;99.90;;;;;;4950353;28;20595;-86
2022/10/20 08:40:22;;;;;;;12.13;8.00;;;9.00;99.90;;;;;;4932278;29;20075;-85
2022/10/20 08:42:48;;;;;;;11.77;8.52;;;9.00;99.90;;;;;;4906356;29;20398;-85
2022/10/20 08:45:17;;;;;;;8.40;7.60;;;9.10;99.90;;;;;;4934997;29;20131;-85
2022/10/20 08:47:49;;;;;;;8.43;7.35;;;9.10;99.90;;;;;;4932587;29;20039;-86
2022/10/20 08:50:26;;;;;;;9.63;6.97;;;9.30;99.90;;;;;;4924394;29;20027;-85
2022/10/20 08:53:00;;;;;;;8.60;6.53;;;9.30;99.90;;;;;;4947661;28;20099;-85
2022/10/20 08:55:28;;;;;;;9.25;7.55;;;9.10;99.90;;;;;;4918371;29;20050;-85
2022/10/20 08:58:10;;;;;;;9.10;7.30;;;9.50;99.90;;;;;;4935105;29;20047;-85
2022/10/20 09:00:37;;;;;;;11.82;7.05;;;9.60;99.90;;;;;;4940103;28;20071;-85
2022/10/20 09:03:32;;;;;;;11.10;6.97;;;9.60;99.90;;;;;;4919418;29;20051;-85
2022/10/20 09:06:08;;;;;;;7.20;6.18;;;9.70;99.90;;;;;;4899068;29;20067;-85
2022/10/20 09:08:40;;;;;;;8.23;6.60;;;9.90;99.90;;;;;;4935715;29;20047;-85
2022/10/20 09:11:10;;;;;;;6.95;6.35;;;10.00;99.90;;;;;;4915823;29;20031;-85
2022/10/20 09:13:36;;;;;;;7.78;6.97;;;10.10;99.90;;;;;;4934484;29;20043;-85
2022/10/20 09:16:30;;;;;;;6.97;6.30;;;10.20;99.90;;;;;;4920497;29;20046;-86
2022/10/20 09:19:04;;;;;;;9.27;5.75;;;10.20;99.90;;;;;;4922150;29;20027;-85
2022/10/20 09:21:42;;;;;;;8.50;6.40;;;10.30;99.90;;;;;;4948332;28;20053;-85
2022/10/20 09:24:08;;;;;;;13.85;7.00;;;10.30;99.90;;;;;;4935811;29;20054;-85
2022/10/20 09:27:00;;;;;;;7.45;5.80;;;10.30;99.90;;;;;;4931893;29;20044;-86
2022/10/20 09:29:44;;;;;;;7.57;6.20;;;10.30;99.90;;;;;;4918781;29;20727;-85
2022/10/20 09:32:30;;;;;;;10.57;6.13;;;10.40;99.90;;;;;;4917151;29;20047;-85
2022/10/20 09:35:17;;;;;;;6.47;5.82;;;10.50;99.90;;;;;;4934273;29;20047;-85
2022/10/20 09:38:01;;;;;;;8.48;5.95;;;10.50;99.90;;;;;;4923852;29;20047;-85
2022/10/20 09:40:39;;;;;;;6.57;5.35;;;10.50;99.90;;;;;;4923715;29;20036;-85
2022/10/20 09:43:15;;;;;;;9.90;7.45;;;10.60;99.90;;;;;;4916464;29;20040;-85
2022/10/20 09:45:51;;;;;;;8.20;5.72;;;10.60;99.90;;;;;;4897535;29;20127;-85
2022/10/20 09:48:26;;;;;;;6.40;5.75;;;10.60;99.90;;;;;;4898194;29;20040;-85
2022/10/20 09:50:55;;;;;;;9.50;5.97;;;10.70;99.90;;;;;;4913686;29;20043;-85
2022/10/20 09:53:26;;;;;;;8.88;6.13;;;10.70;99.90;;;;;;4901560;29;20088;-85
2022/10/20 09:55:59;;;;;;;7.57;5.30;;;10.70;99.90;;;;;;4894009;29;20072;-85
2022/10/20 09:59:06;;;;;;;6.20;5.60;;;10.60;99.90;;;;;;4894097;29;20104;-85
2022/10/20 10:02:02;;;;;;;5.93;5.07;;;10.80;99.90;;;;;;4896757;29;20120;-85
2022/10/20 10:04:39;;;;;;;10.55;5.22;;;11.40;99.90;;;;;;4906904;29;20044;-85
2022/10/20 10:07:32;;;;;;;5.90;5.30;;;11.00;99.90;;;;;;4897193;29;20130;-85
2022/10/20 10:10:44;;;;;;;5.65;5.15;;;11.00;99.90;;;;;;4892283;29;20414;-85
2022/10/20 10:13:50;;;;;;;10.15;5.63;;;11.10;99.90;;;;;;4910002;29;20044;-85
2022/10/20 10:16:23;;;;;;;5.75;5.15;;;11.20;99.90;;;;;;4911036;29;20050;-85
2022/10/20 10:18:59;;;;;;;6.43;5.63;;;11.20;99.90;;;;;;4927024;29;20062;-85
2022/10/20 10:21:53;;;;;;;5.60;4.80;;;11.30;99.90;;;;;;4927147;29;20051;-85
2022/10/20 10:25:02;;;;;;;5.50;5.00;;;11.40;99.90;;;;;;4893596;29;20055;-86
2022/10/20 10:27:34;;;;;;;9.48;5.45;;;11.50;99.90;;;;;;4893913;29;20070;-86
2022/10/20 10:30:31;;;;;;;8.00;6.20;;;11.60;99.90;;;;;;4885279;29;20711;-85
2022/10/20 10:33:27;;;;;;;7.63;5.85;;;11.70;99.90;;;;;;4897127;29;20039;-85
2022/10/20 10:35:53;;;;;;;6.50;5.65;;;11.80;99.90;;;;;;4905559;29;20055;-85
2022/10/20 10:38:24;;;;;;;7.70;5.70;;;11.90;99.90;;;;;;4915095;29;20122;-85
2022/10/20 10:41:01;;;;;;;6.40;5.80;;;12.00;99.90;;;;;;4941147;28;20076;-86
2022/10/20 10:44:09;;;;;;;7.93;5.65;;;12.10;99.90;;;;;;4943231;28;20054;-85
2022/10/20 10:47:00;;;;;;;9.43;5.32;;;12.30;99.90;;;;;;4943469;28;20043;-85
2022/10/20 10:50:10;;;;;;;10.65;6.30;;;12.30;99.90;;;;;;4938082;29;20126;-84
2022/10/20 10:53:05;;;;;;;9.70;6.20;;;12.60;99.90;;;;;;4942790;28;20382;-85
2022/10/20 10:55:57;;;;;;;7.70;6.10;;;12.60;99.90;;;;;;4910665;29;20047;-85
2022/10/20 10:59:03;;;;;;;6.00;5.40;;;12.70;99.90;;;;;;4926829;29;20468;-85
2022/10/20 11:01:58;;;;;;;7.32;5.35;;;12.90;99.90;;;;;;4962486;28;20040;-85
2022/10/20 11:04:52;;;;;;;10.32;5.35;;;12.90;99.90;;;;;;4915181;29;20059;-85
2022/10/20 11:07:40;;;;;;;9.85;6.38;;;12.80;99.90;;;;;;4907686;29;20059;-85
2022/10/20 11:10:26;;;;;;;6.13;5.53;;;12.90;99.90;;;;;;4923044;29;20052;-86
2022/10/20 11:16:54;;;;;;;5.72;5.22;;;13.00;99.90;;;;;;4929732;29;20118;-85
2022/10/20 11:20:02;;;;;;;5.80;5.20;;;13.00;99.90;;;;;;4947073;28;20055;-86
2022/10/20 11:22:49;;;;;;;7.75;5.25;;;13.00;99.90;;;;;;4938167;29;20050;-85
2022/10/20 11:25:43;;;;;;;9.10;4.78;;;13.10;99.90;;;;;;4935621;29;20552;-86
2022/10/20 11:28:50;;;;;;;11.70;4.88;;;13.20;99.90;;;;;;4918075;29;20131;-86
2022/10/20 11:31:33;;;;;;;6.47;4.90;;;13.10;99.90;;;;;;4933214;28;20054;-85
2022/10/20 11:34:33;;;;;;;6.95;5.22;;;13.20;99.90;;;;;;4914080;29;20059;-86
2022/10/20 11:37:29;;;;;;;7.43;5.10;;;13.20;99.90;;;;;;4901548;29;20060;-86
2022/10/20 11:40:45;;;;;;;8.30;5.27;;;13.20;99.90;;;;;;4947672;28;20051;-85
2022/10/20 11:43:49;;;;;;;6.20;5.60;;;13.10;99.90;;;;;;4898530;29;20044;-85
2022/10/20 11:46:21;;;;;;;11.80;5.70;;;13.10;99.90;;;;;;4905914;29;20055;-85
2022/10/20 11:49:32;;;;;;;9.13;5.68;;;13.00;99.90;;;;;;4913068;29;20419;-85
2022/10/20 11:52:34;;;;;;;5.80;5.10;;;13.10;99.90;;;;;;4891826;29;20045;-86
2022/10/20 11:55:19;;;;;;;7.00;5.22;;;13.00;99.90;;;;;;4944752;28;20126;-85
2022/10/20 11:58:14;;;;;;;8.93;6.32;;;13.00;99.90;;;;;;4944956;28;20054;-85
2022/10/20 12:01:17;;;;;;;7.88;6.03;;;13.00;99.90;;;;;;4947365;28;20095;-85
2022/10/20 12:04:08;;;;;;;12.15;5.82;;;13.00;99.90;;;;;;4927885;29;20411;-86
2022/10/20 12:06:43;;;;;;;6.57;6.00;;;12.90;99.90;;;;;;4915700;29;20050;-85
2022/10/20 12:09:27;;;;;;;8.33;6.73;;;12.90;99.90;;;;;;4934053;29;20047;-85
2022/10/20 12:12:05;;;;;;;9.32;6.60;;;12.90;99.90;;;;;;4938469;29;20576;-85
2022/10/20 12:14:41;;;;;;;10.07;6.78;;;12.70;99.90;;;;;;4908864;29;20055;-85
2022/10/20 12:17:22;;;;;;;8.25;6.72;;;12.70;99.90;;;;;;4900520;29;20114;-85
2022/10/20 12:20:04;;;;;;;8.27;6.65;;;12.70;99.90;;;;;;4927613;29;20048;-85
2022/10/20 12:22:44;;;;;;;8.38;6.68;;;12.90;99.90;;;;;;4924468;29;20137;-85
2022/10/20 12:25:17;;;;;;;7.18;6.47;;;12.60;99.90;;;;;;4928815;29;20551;-85
2022/10/20 12:27:42;;;;;;;12.57;7.65;;;12.60;99.90;;;;;;4932827;29;20242;-85
2022/10/20 12:30:42;;;;;;;10.05;6.72;;;12.50;99.90;;;;;;4945332;28;20032;-85
2022/10/20 12:33:27;;;;;;;9.70;7.18;;;12.50;99.90;;;;;;4931799;29;20040;-85
2022/10/20 12:36:12;;;;;;;14.35;7.75;;;12.50;99.90;;;;;;4911942;29;20085;-85
2022/10/20 12:38:39;;;;;;;8.40;7.57;;;12.50;99.90;;;;;;4932272;29;20078;-85
2022/10/20 12:41:11;;;;;;;7.55;6.82;;;12.40;99.90;;;;;;4941618;28;20075;-85
2022/10/20 12:43:53;;;;;;;8.60;7.55;;;12.40;99.90;;;;;;4930996;29;20568;-85
2022/10/20 12:46:30;;;;;;;8.85;7.78;;;12.30;99.90;;;;;;4928842;29;20035;-85
2022/10/20 12:49:05;;;;;;;11.13;8.07;;;12.40;99.90;;;;;;4932576;29;20043;-85
2022/10/20 12:51:39;;;;;;;11.43;8.68;;;12.40;99.90;;;;;;4932132;29;20635;-85
2022/10/20 12:54:42;;;;;;;8.73;8.02;;;12.40;99.90;;;;;;4948337;28;20043;-85
2022/10/20 12:57:40;;;;;;;10.93;8.77;;;12.40;99.90;;;;;;4908720;29;20508;-85
2022/10/20 13:00:31;;;;;;;11.35;8.68;;;12.40;99.90;;;;;;4949079;28;20526;-85
2022/10/20 13:02:58;;;;;;;14.95;9.20;;;12.30;99.90;;;;;;4892333;29;20080;-85
2022/10/20 13:05:29;;;;;;;11.75;9.77;;;12.30;99.90;;;;;;4933679;29;20079;-85
2022/10/20 13:08:18;;;;;;;12.65;9.20;;;12.30;99.90;;;;;;4927757;29;20560;-85
2022/10/20 13:10:52;;;;;;;11.02;8.80;;;12.20;99.90;;;;;;4934339;29;20408;-85
2022/10/20 13:13:18;;;;;;;11.32;10.13;;;12.20;99.90;;;;;;4920623;29;20119;-85
2022/10/20 13:15:49;;;;;;;15.55;10.23;;;12.20;99.90;;;;;;4931558;29;20127;-85
2022/10/20 13:18:38;;;;;;;10.02;9.02;;;12.20;99.90;;;;;;4943798;28;20051;-85
2022/10/20 13:21:21;;;;;;;11.18;10.07;;;12.10;99.90;;;;;;4930951;29;20119;-85
2022/10/20 13:23:56;;;;;;;14.45;10.57;;;12.20;99.90;;;;;;4929220;29;20083;-85
2022/10/20 13:26:26;;;;;;;10.68;9.70;;;12.20;99.90;;;;;;4918908;29;20084;-85
2022/10/20 13:28:58;;;;;;;14.52;10.35;;;12.20;99.90;;;;;;4949705;28;20089;-85
2022/10/20 13:31:26;;;;;;;14.98;11.10;;;12.10;99.90;;;;;;4921822;29;20036;-86
2022/10/20 13:34:11;;;;;;;12.90;10.73;;;12.20;99.90;;;;;;4935603;29;20039;-86
2022/10/20 13:36:52;;;;;;;11.77;10.63;;;12.10;99.90;;;;;;4928888;29;20040;-85
2022/10/20 13:39:40;;;;;;;16.10;11.93;;;12.10;99.90;;;;;;4898459;29;20051;-85
2022/10/20 13:42:34;;;;;;;11.90;10.43;;;12.10;99.90;;;;;;4898023;29;20586;-84
2022/10/20 13:45:37;;;;;;;13.02;11.80;;;12.10;99.90;;;;;;4932081;29;20043;-85